sensor_id;sensor_type;location;lat;lon;timestamp;P1;durP1;ratioP1;P2;durP2;ratioP2
83190;SDS011;73087;49.924;22.080;2023-10-13T00:00:36;17.17;;;7.72;;
83190;SDS011;73087;49.924;22.080;2023-10-13T00:01:36;16.60;;;8.23;;
83190;SDS011;73087;49.924;22.080;2023-10-13T00:02:37;17.02;;;8.18;;
83190;SDS011;73087;49.924;22.080;2023-10-13T00:03:38;14.18;;;7.50;;
83190;SDS011;73087;49.924;22.080;2023-10-13T00:04:38;16.42;;;8.10;;
83190;SDS011;73087;49.924;22.080;2023-10-13T00:05:39;17.33;;;8.35;;
83190;SDS011;73087;49.924;22.080;2023-10-13T00:06:41;12.98;;;8.00;;
83190;SDS011;73087;49.924;22.080;2023-10-13T00:07:41;17.65;;;8.88;;
83190;SDS011;73087;49.924;22.080;2023-10-13T00:08:42;17.98;;;9.40;;
83190;SDS011;73087;49.924;22.080;2023-10-13T00:09:42;20.50;;;8.85;;
83190;SDS011;73087;49.924;22.080;2023-10-13T00:10:43;16.70;;;8.25;;
83190;SDS011;73087;49.924;22.080;2023-10-13T00:11:43;15.27;;;8.57;;
83190;SDS011;73087;49.924;22.080;2023-10-13T00:12:44;17.75;;;8.65;;
83190;SDS011;73087;49.924;22.080;2023-10-13T00:13:44;16.80;;;8.38;;
83190;SDS011;73087;49.924;22.080;2023-10-13T00:14:45;14.00;;;7.55;;
83190;SDS011;73087;49.924;22.080;2023-10-13T00:15:46;12.07;;;6.75;;
83190;SDS011;73087;49.924;22.080;2023-10-13T00:16:47;12.68;;;7.00;;
83190;SDS011;73087;49.924;22.080;2023-10-13T00:17:48;12.27;;;6.68;;
83190;SDS011;73087;49.924;22.080;2023-10-13T00:18:48;13.02;;;7.13;;
83190;SDS011;73087;49.924;22.080;2023-10-13T00:19:50;11.82;;;6.75;;
83190;SDS011;73087;49.924;22.080;2023-10-13T00:20:50;12.85;;;7.45;;
83190;SDS011;73087;49.924;22.080;2023-10-13T00:21:52;16.98;;;8.15;;
83190;SDS011;73087;49.924;22.080;2023-10-13T00:22:53;13.00;;;7.70;;
83190;SDS011;73087;49.924;22.080;2023-10-13T00:23:53;13.02;;;6.95;;
83190;SDS011;73087;49.924;22.080;2023-10-13T00:24:54;13.20;;;7.85;;
83190;SDS011;73087;49.924;22.080;2023-10-13T00:25:54;13.00;;;7.20;;
83190;SDS011;73087;49.924;22.080;2023-10-13T00:26:55;14.55;;;8.05;;
83190;SDS011;73087;49.924;22.080;2023-10-13T00:27:56;13.43;;;8.13;;
83190;SDS011;73087;49.924;22.080;2023-10-13T00:28:56;13.27;;;7.43;;
83190;SDS011;73087;49.924;22.080;2023-10-13T00:29:59;12.43;;;7.20;;
83190;SDS011;73087;49.924;22.080;2023-10-13T00:31:00;14.18;;;7.90;;
83190;SDS011;73087;49.924;22.080;2023-10-13T00:32:02;17.05;;;9.40;;
83190;SDS011;73087;49.924;22.080;2023-10-13T00:33:02;17.73;;;8.27;;
83190;SDS011;73087;49.924;22.080;2023-10-13T00:34:03;17.30;;;8.25;;
83190;SDS011;73087;49.924;22.080;2023-10-13T00:35:04;16.23;;;9.30;;
83190;SDS011;73087;49.924;22.080;2023-10-13T00:36:05;15.13;;;8.45;;
83190;SDS011;73087;49.924;22.080;2023-10-13T00:37:07;17.48;;;8.50;;
83190;SDS011;73087;49.924;22.080;2023-10-13T00:38:08;15.50;;;8.88;;
83190;SDS011;73087;49.924;22.080;2023-10-13T00:39:08;13.02;;;7.88;;
83190;SDS011;73087;49.924;22.080;2023-10-13T00:40:09;11.93;;;7.55;;
83190;SDS011;73087;49.924;22.080;2023-10-13T00:41:10;14.73;;;7.72;;
83190;SDS011;73087;49.924;22.080;2023-10-13T00:42:11;16.50;;;8.88;;
83190;SDS011;73087;49.924;22.080;2023-10-13T00:43:12;13.68;;;8.38;;
83190;SDS011;73087;49.924;22.080;2023-10-13T00:44:13;15.50;;;7.25;;
83190;SDS011;73087;49.924;22.080;2023-10-13T00:45:13;15.10;;;8.13;;
83190;SDS011;73087;49.924;22.080;2023-10-13T00:46:14;18.35;;;8.25;;
83190;SDS011;73087;49.924;22.080;2023-10-13T00:47:15;12.13;;;7.22;;
83190;SDS011;73087;49.924;22.080;2023-10-13T00:48:17;11.55;;;7.07;;
83190;SDS011;73087;49.924;22.080;2023-10-13T00:49:17;12.98;;;6.97;;
83190;SDS011;73087;49.924;22.080;2023-10-13T00:50:18;13.95;;;7.10;;
83190;SDS011;73087;49.924;22.080;2023-10-13T00:51:19;12.48;;;6.78;;
83190;SDS011;73087;49.924;22.080;2023-10-13T00:52:21;12.85;;;7.07;;
83190;SDS011;73087;49.924;22.080;2023-10-13T00:53:22;13.20;;;8.00;;
83190;SDS011;73087;49.924;22.080;2023-10-13T00:54:23;14.30;;;7.50;;
83190;SDS011;73087;49.924;22.080;2023-10-13T00:55:24;15.38;;;8.32;;
83190;SDS011;73087;49.924;22.080;2023-10-13T00:56:25;19.85;;;9.35;;
83190;SDS011;73087;49.924;22.080;2023-10-13T00:57:27;12.32;;;8.27;;
83190;SDS011;73087;49.924;22.080;2023-10-13T00:58:28;16.92;;;8.65;;
83190;SDS011;73087;49.924;22.080;2023-10-13T00:59:28;17.20;;;9.55;;
83190;SDS011;73087;49.924;22.080;2023-10-13T01:00:29;15.88;;;9.23;;
83190;SDS011;73087;49.924;22.080;2023-10-13T01:01:29;16.27;;;8.65;;
83190;SDS011;73087;49.924;22.080;2023-10-13T01:02:30;17.95;;;8.02;;
83190;SDS011;73087;49.924;22.080;2023-10-13T01:03:30;15.65;;;8.25;;
83190;SDS011;73087;49.924;22.080;2023-10-13T01:04:31;14.15;;;7.30;;
83190;SDS011;73087;49.924;22.080;2023-10-13T01:05:31;11.20;;;6.75;;
83190;SDS011;73087;49.924;22.080;2023-10-13T01:06:33;11.27;;;6.95;;
83190;SDS011;73087;49.924;22.080;2023-10-13T01:07:35;11.70;;;7.38;;
83190;SDS011;73087;49.924;22.080;2023-10-13T01:08:35;13.63;;;7.75;;
83190;SDS011;73087;49.924;22.080;2023-10-13T01:09:40;14.10;;;7.53;;
83190;SDS011;73087;49.924;22.080;2023-10-13T01:10:41;11.77;;;6.57;;
83190;SDS011;73087;49.924;22.080;2023-10-13T01:11:42;12.60;;;7.53;;
83190;SDS011;73087;49.924;22.080;2023-10-13T01:12:44;11.45;;;6.65;;
83190;SDS011;73087;49.924;22.080;2023-10-13T01:13:44;13.73;;;6.85;;
83190;SDS011;73087;49.924;22.080;2023-10-13T01:14:45;11.77;;;6.97;;
83190;SDS011;73087;49.924;22.080;2023-10-13T01:15:46;14.20;;;6.90;;
83190;SDS011;73087;49.924;22.080;2023-10-13T01:16:46;12.65;;;6.70;;
83190;SDS011;73087;49.924;22.080;2023-10-13T01:17:48;13.63;;;7.15;;
83190;SDS011;73087;49.924;22.080;2023-10-13T01:18:49;15.43;;;8.38;;
83190;SDS011;73087;49.924;22.080;2023-10-13T01:19:49;15.82;;;7.82;;
83190;SDS011;73087;49.924;22.080;2023-10-13T01:20:50;13.82;;;8.07;;
83190;SDS011;73087;49.924;22.080;2023-10-13T01:21:50;11.80;;;7.25;;
83190;SDS011;73087;49.924;22.080;2023-10-13T01:22:53;13.98;;;6.55;;
83190;SDS011;73087;49.924;22.080;2023-10-13T01:23:55;9.93;;;6.82;;
83190;SDS011;73087;49.924;22.080;2023-10-13T01:24:55;14.57;;;8.27;;
83190;SDS011;73087;49.924;22.080;2023-10-13T01:25:56;14.82;;;8.30;;
83190;SDS011;73087;49.924;22.080;2023-10-13T01:26:56;14.07;;;8.23;;
83190;SDS011;73087;49.924;22.080;2023-10-13T01:27:57;18.10;;;8.98;;
83190;SDS011;73087;49.924;22.080;2023-10-13T01:28:57;15.65;;;8.63;;
83190;SDS011;73087;49.924;22.080;2023-10-13T01:29:58;15.55;;;9.35;;
83190;SDS011;73087;49.924;22.080;2023-10-13T01:30:58;12.23;;;8.00;;
83190;SDS011;73087;49.924;22.080;2023-10-13T01:31:59;16.27;;;8.45;;
83190;SDS011;73087;49.924;22.080;2023-10-13T01:32:59;15.15;;;8.65;;
83190;SDS011;73087;49.924;22.080;2023-10-13T01:34:00;14.15;;;8.57;;
83190;SDS011;73087;49.924;22.080;2023-10-13T01:35:01;16.25;;;8.50;;
83190;SDS011;73087;49.924;22.080;2023-10-13T01:36:01;13.75;;;7.53;;
83190;SDS011;73087;49.924;22.080;2023-10-13T01:37:02;13.02;;;7.82;;
83190;SDS011;73087;49.924;22.080;2023-10-13T01:38:03;13.40;;;7.68;;
83190;SDS011;73087;49.924;22.080;2023-10-13T01:39:05;15.82;;;7.93;;
83190;SDS011;73087;49.924;22.080;2023-10-13T01:40:06;15.32;;;8.35;;
83190;SDS011;73087;49.924;22.080;2023-10-13T01:41:07;16.38;;;8.77;;
83190;SDS011;73087;49.924;22.080;2023-10-13T01:42:07;16.08;;;9.63;;
83190;SDS011;73087;49.924;22.080;2023-10-13T01:43:08;17.15;;;9.43;;
83190;SDS011;73087;49.924;22.080;2023-10-13T01:44:09;15.60;;;9.45;;
83190;SDS011;73087;49.924;22.080;2023-10-13T01:45:09;16.02;;;9.13;;
83190;SDS011;73087;49.924;22.080;2023-10-13T01:46:10;15.30;;;9.18;;
83190;SDS011;73087;49.924;22.080;2023-10-13T01:47:11;16.60;;;8.75;;
83190;SDS011;73087;49.924;22.080;2023-10-13T01:48:11;16.45;;;9.18;;
83190;SDS011;73087;49.924;22.080;2023-10-13T01:49:12;14.40;;;8.65;;
83190;SDS011;73087;49.924;22.080;2023-10-13T01:50:12;14.07;;;9.27;;
83190;SDS011;73087;49.924;22.080;2023-10-13T01:51:13;16.58;;;8.98;;
83190;SDS011;73087;49.924;22.080;2023-10-13T01:52:14;15.65;;;8.43;;
83190;SDS011;73087;49.924;22.080;2023-10-13T01:53:15;13.32;;;8.02;;
83190;SDS011;73087;49.924;22.080;2023-10-13T01:54:16;15.55;;;8.25;;
83190;SDS011;73087;49.924;22.080;2023-10-13T01:55:17;12.60;;;8.35;;
83190;SDS011;73087;49.924;22.080;2023-10-13T01:56:17;15.98;;;9.48;;
83190;SDS011;73087;49.924;22.080;2023-10-13T01:57:18;14.45;;;8.93;;
83190;SDS011;73087;49.924;22.080;2023-10-13T01:58:19;15.07;;;9.07;;
83190;SDS011;73087;49.924;22.080;2023-10-13T01:59:19;13.20;;;8.57;;
83190;SDS011;73087;49.924;22.080;2023-10-13T02:00:20;13.40;;;8.43;;
83190;SDS011;73087;49.924;22.080;2023-10-13T02:01:20;13.07;;;8.23;;
83190;SDS011;73087;49.924;22.080;2023-10-13T02:02:21;16.38;;;8.93;;
83190;SDS011;73087;49.924;22.080;2023-10-13T02:03:22;15.45;;;8.52;;
83190;SDS011;73087;49.924;22.080;2023-10-13T02:04:23;17.58;;;8.55;;
83190;SDS011;73087;49.924;22.080;2023-10-13T02:05:23;12.88;;;7.68;;
83190;SDS011;73087;49.924;22.080;2023-10-13T02:06:24;15.77;;;8.07;;
83190;SDS011;73087;49.924;22.080;2023-10-13T02:07:25;12.38;;;7.15;;
83190;SDS011;73087;49.924;22.080;2023-10-13T02:08:25;16.58;;;7.68;;
83190;SDS011;73087;49.924;22.080;2023-10-13T02:09:27;13.48;;;7.93;;
83190;SDS011;73087;49.924;22.080;2023-10-13T02:10:28;14.07;;;7.50;;
83190;SDS011;73087;49.924;22.080;2023-10-13T02:11:28;15.07;;;7.80;;
83190;SDS011;73087;49.924;22.080;2023-10-13T02:12:29;10.25;;;7.10;;
83190;SDS011;73087;49.924;22.080;2023-10-13T02:13:29;13.70;;;7.25;;
83190;SDS011;73087;49.924;22.080;2023-10-13T02:14:30;13.52;;;7.25;;
83190;SDS011;73087;49.924;22.080;2023-10-13T02:15:31;12.73;;;7.70;;
83190;SDS011;73087;49.924;22.080;2023-10-13T02:16:31;13.38;;;6.93;;
83190;SDS011;73087;49.924;22.080;2023-10-13T02:17:32;12.35;;;7.03;;
83190;SDS011;73087;49.924;22.080;2023-10-13T02:18:32;13.23;;;6.82;;
83190;SDS011;73087;49.924;22.080;2023-10-13T02:19:33;11.52;;;6.88;;
83190;SDS011;73087;49.924;22.080;2023-10-13T02:20:33;12.63;;;8.00;;
83190;SDS011;73087;49.924;22.080;2023-10-13T02:21:34;14.05;;;8.07;;
83190;SDS011;73087;49.924;22.080;2023-10-13T02:22:35;21.48;;;8.63;;
83190;SDS011;73087;49.924;22.080;2023-10-13T02:23:36;14.65;;;9.25;;
83190;SDS011;73087;49.924;22.080;2023-10-13T02:24:37;18.00;;;9.05;;
83190;SDS011;73087;49.924;22.080;2023-10-13T02:25:38;17.52;;;9.23;;
83190;SDS011;73087;49.924;22.080;2023-10-13T02:26:39;14.95;;;8.98;;
83190;SDS011;73087;49.924;22.080;2023-10-13T02:27:40;18.25;;;9.85;;
83190;SDS011;73087;49.924;22.080;2023-10-13T02:28:41;17.77;;;9.48;;
83190;SDS011;73087;49.924;22.080;2023-10-13T02:29:41;15.65;;;9.32;;
83190;SDS011;73087;49.924;22.080;2023-10-13T02:30:42;15.80;;;10.20;;
83190;SDS011;73087;49.924;22.080;2023-10-13T02:31:44;14.25;;;8.75;;
83190;SDS011;73087;49.924;22.080;2023-10-13T02:32:44;15.93;;;9.25;;
83190;SDS011;73087;49.924;22.080;2023-10-13T02:33:45;14.98;;;9.50;;
83190;SDS011;73087;49.924;22.080;2023-10-13T02:34:46;16.00;;;8.85;;
83190;SDS011;73087;49.924;22.080;2023-10-13T02:35:46;15.95;;;8.88;;
83190;SDS011;73087;49.924;22.080;2023-10-13T02:36:47;13.68;;;8.63;;
83190;SDS011;73087;49.924;22.080;2023-10-13T02:37:48;12.02;;;8.20;;
83190;SDS011;73087;49.924;22.080;2023-10-13T02:38:49;14.45;;;7.80;;
83190;SDS011;73087;49.924;22.080;2023-10-13T02:39:51;12.23;;;7.25;;
83190;SDS011;73087;49.924;22.080;2023-10-13T02:40:51;11.75;;;7.13;;
83190;SDS011;73087;49.924;22.080;2023-10-13T02:41:52;13.10;;;7.22;;
83190;SDS011;73087;49.924;22.080;2023-10-13T02:42:53;13.48;;;7.65;;
83190;SDS011;73087;49.924;22.080;2023-10-13T02:43:54;12.85;;;8.02;;
83190;SDS011;73087;49.924;22.080;2023-10-13T02:44:56;13.50;;;8.55;;
83190;SDS011;73087;49.924;22.080;2023-10-13T02:45:56;12.80;;;8.15;;
83190;SDS011;73087;49.924;22.080;2023-10-13T02:46:57;14.13;;;8.80;;
83190;SDS011;73087;49.924;22.080;2023-10-13T02:47:57;17.85;;;8.77;;
83190;SDS011;73087;49.924;22.080;2023-10-13T02:48:58;15.93;;;9.50;;
83190;SDS011;73087;49.924;22.080;2023-10-13T02:49:59;18.23;;;9.02;;
83190;SDS011;73087;49.924;22.080;2023-10-13T02:50:59;15.02;;;8.52;;
83190;SDS011;73087;49.924;22.080;2023-10-13T02:52:00;15.75;;;8.65;;
83190;SDS011;73087;49.924;22.080;2023-10-13T02:53:00;18.65;;;8.88;;
83190;SDS011;73087;49.924;22.080;2023-10-13T02:54:01;13.93;;;9.07;;
83190;SDS011;73087;49.924;22.080;2023-10-13T02:55:04;14.52;;;8.40;;
83190;SDS011;73087;49.924;22.080;2023-10-13T02:56:05;16.58;;;8.45;;
83190;SDS011;73087;49.924;22.080;2023-10-13T02:57:06;16.20;;;8.27;;
83190;SDS011;73087;49.924;22.080;2023-10-13T02:58:06;16.75;;;8.50;;
83190;SDS011;73087;49.924;22.080;2023-10-13T02:59:07;14.75;;;8.02;;
83190;SDS011;73087;49.924;22.080;2023-10-13T03:00:07;16.33;;;8.90;;
83190;SDS011;73087;49.924;22.080;2023-10-13T03:01:08;12.60;;;7.20;;
83190;SDS011;73087;49.924;22.080;2023-10-13T03:02:09;12.43;;;7.35;;
83190;SDS011;73087;49.924;22.080;2023-10-13T03:03:09;11.73;;;7.47;;
83190;SDS011;73087;49.924;22.080;2023-10-13T03:04:10;13.40;;;7.22;;
83190;SDS011;73087;49.924;22.080;2023-10-13T03:05:10;11.65;;;6.97;;
83190;SDS011;73087;49.924;22.080;2023-10-13T03:06:11;12.25;;;6.78;;
83190;SDS011;73087;49.924;22.080;2023-10-13T03:07:11;11.93;;;6.70;;
83190;SDS011;73087;49.924;22.080;2023-10-13T03:08:12;15.48;;;7.32;;
83190;SDS011;73087;49.924;22.080;2023-10-13T03:09:12;15.73;;;8.30;;
83190;SDS011;73087;49.924;22.080;2023-10-13T03:10:14;15.85;;;8.55;;
83190;SDS011;73087;49.924;22.080;2023-10-13T03:11:15;14.90;;;8.32;;
83190;SDS011;73087;49.924;22.080;2023-10-13T03:12:16;16.33;;;8.88;;
83190;SDS011;73087;49.924;22.080;2023-10-13T03:13:16;16.80;;;8.35;;
83190;SDS011;73087;49.924;22.080;2023-10-13T03:14:17;17.00;;;8.75;;
83190;SDS011;73087;49.924;22.080;2023-10-13T03:15:19;15.13;;;8.95;;
83190;SDS011;73087;49.924;22.080;2023-10-13T03:16:19;17.58;;;8.48;;
83190;SDS011;73087;49.924;22.080;2023-10-13T03:17:20;20.35;;;9.23;;
83190;SDS011;73087;49.924;22.080;2023-10-13T03:18:20;18.00;;;9.77;;
83190;SDS011;73087;49.924;22.080;2023-10-13T03:19:21;16.40;;;9.18;;
83190;SDS011;73087;49.924;22.080;2023-10-13T03:20:21;20.70;;;9.57;;
83190;SDS011;73087;49.924;22.080;2023-10-13T03:21:22;16.75;;;9.32;;
83190;SDS011;73087;49.924;22.080;2023-10-13T03:22:23;16.60;;;9.10;;
83190;SDS011;73087;49.924;22.080;2023-10-13T03:23:24;19.23;;;10.00;;
83190;SDS011;73087;49.924;22.080;2023-10-13T03:24:25;15.80;;;8.60;;
83190;SDS011;73087;49.924;22.080;2023-10-13T03:25:27;18.48;;;10.00;;
83190;SDS011;73087;49.924;22.080;2023-10-13T03:26:30;17.38;;;9.13;;
83190;SDS011;73087;49.924;22.080;2023-10-13T03:27:31;17.67;;;9.88;;
83190;SDS011;73087;49.924;22.080;2023-10-13T03:28:32;20.60;;;10.10;;
83190;SDS011;73087;49.924;22.080;2023-10-13T03:29:32;17.90;;;10.65;;
83190;SDS011;73087;49.924;22.080;2023-10-13T03:30:34;20.15;;;11.20;;
83190;SDS011;73087;49.924;22.080;2023-10-13T03:31:35;21.65;;;11.48;;
83190;SDS011;73087;49.924;22.080;2023-10-13T03:32:35;20.42;;;11.45;;
83190;SDS011;73087;49.924;22.080;2023-10-13T03:33:36;20.85;;;11.23;;
83190;SDS011;73087;49.924;22.080;2023-10-13T03:34:36;22.33;;;11.55;;
83190;SDS011;73087;49.924;22.080;2023-10-13T03:35:37;17.48;;;10.90;;
83190;SDS011;73087;49.924;22.080;2023-10-13T03:36:38;21.30;;;10.45;;
83190;SDS011;73087;49.924;22.080;2023-10-13T03:37:39;23.13;;;10.32;;
83190;SDS011;73087;49.924;22.080;2023-10-13T03:38:40;18.95;;;9.40;;
83190;SDS011;73087;49.924;22.080;2023-10-13T03:39:40;19.05;;;9.88;;
83190;SDS011;73087;49.924;22.080;2023-10-13T03:40:42;20.77;;;9.88;;
83190;SDS011;73087;49.924;22.080;2023-10-13T03:41:43;20.05;;;10.60;;
83190;SDS011;73087;49.924;22.080;2023-10-13T03:42:44;17.10;;;9.40;;
83190;SDS011;73087;49.924;22.080;2023-10-13T03:43:44;18.70;;;10.00;;
83190;SDS011;73087;49.924;22.080;2023-10-13T03:44:45;18.27;;;9.85;;
83190;SDS011;73087;49.924;22.080;2023-10-13T03:45:45;14.95;;;8.80;;
83190;SDS011;73087;49.924;22.080;2023-10-13T03:46:46;16.85;;;8.60;;
83190;SDS011;73087;49.924;22.080;2023-10-13T03:47:46;14.50;;;8.40;;
83190;SDS011;73087;49.924;22.080;2023-10-13T03:48:47;12.45;;;7.65;;
83190;SDS011;73087;49.924;22.080;2023-10-13T03:49:47;11.40;;;6.80;;
83190;SDS011;73087;49.924;22.080;2023-10-13T03:50:48;12.18;;;6.82;;
83190;SDS011;73087;49.924;22.080;2023-10-13T03:51:49;15.15;;;7.70;;
83190;SDS011;73087;49.924;22.080;2023-10-13T03:52:49;16.10;;;7.95;;
83190;SDS011;73087;49.924;22.080;2023-10-13T03:53:50;17.65;;;8.57;;
83190;SDS011;73087;49.924;22.080;2023-10-13T03:54:50;13.95;;;8.10;;
83190;SDS011;73087;49.924;22.080;2023-10-13T03:55:52;13.65;;;7.72;;
83190;SDS011;73087;49.924;22.080;2023-10-13T03:56:53;18.05;;;8.63;;
83190;SDS011;73087;49.924;22.080;2023-10-13T03:57:53;16.75;;;8.32;;
83190;SDS011;73087;49.924;22.080;2023-10-13T03:58:55;16.58;;;7.95;;
83190;SDS011;73087;49.924;22.080;2023-10-13T03:59:56;12.32;;;7.68;;
83190;SDS011;73087;49.924;22.080;2023-10-13T04:00:56;16.95;;;9.43;;
83190;SDS011;73087;49.924;22.080;2023-10-13T04:01:57;18.95;;;10.00;;
83190;SDS011;73087;49.924;22.080;2023-10-13T04:02:58;19.85;;;9.90;;
83190;SDS011;73087;49.924;22.080;2023-10-13T04:03:58;17.70;;;9.52;;
83190;SDS011;73087;49.924;22.080;2023-10-13T04:04:59;18.00;;;8.90;;
83190;SDS011;73087;49.924;22.080;2023-10-13T04:05:59;13.57;;;8.55;;
83190;SDS011;73087;49.924;22.080;2023-10-13T04:07:00;21.23;;;10.27;;
83190;SDS011;73087;49.924;22.080;2023-10-13T04:08:01;20.10;;;11.82;;
83190;SDS011;73087;49.924;22.080;2023-10-13T04:09:02;22.52;;;10.77;;
83190;SDS011;73087;49.924;22.080;2023-10-13T04:10:03;17.13;;;9.95;;
83190;SDS011;73087;49.924;22.080;2023-10-13T04:11:06;17.40;;;9.35;;
83190;SDS011;73087;49.924;22.080;2023-10-13T04:12:07;18.88;;;10.10;;
83190;SDS011;73087;49.924;22.080;2023-10-13T04:13:08;20.25;;;10.95;;
83190;SDS011;73087;49.924;22.080;2023-10-13T04:14:08;19.25;;;10.20;;
83190;SDS011;73087;49.924;22.080;2023-10-13T04:15:09;17.67;;;10.00;;
83190;SDS011;73087;49.924;22.080;2023-10-13T04:16:10;18.58;;;9.65;;
83190;SDS011;73087;49.924;22.080;2023-10-13T04:17:11;17.65;;;9.23;;
83190;SDS011;73087;49.924;22.080;2023-10-13T04:18:11;17.48;;;9.40;;
83190;SDS011;73087;49.924;22.080;2023-10-13T04:19:12;16.85;;;8.80;;
83190;SDS011;73087;49.924;22.080;2023-10-13T04:20:12;19.58;;;9.10;;
83190;SDS011;73087;49.924;22.080;2023-10-13T04:21:13;14.82;;;8.27;;
83190;SDS011;73087;49.924;22.080;2023-10-13T04:22:14;14.20;;;8.48;;
83190;SDS011;73087;49.924;22.080;2023-10-13T04:23:14;13.60;;;7.93;;
83190;SDS011;73087;49.924;22.080;2023-10-13T04:24:15;14.80;;;8.32;;
83190;SDS011;73087;49.924;22.080;2023-10-13T04:25:16;17.17;;;8.57;;
83190;SDS011;73087;49.924;22.080;2023-10-13T04:26:19;18.83;;;8.43;;
83190;SDS011;73087;49.924;22.080;2023-10-13T04:27:19;18.73;;;8.60;;
83190;SDS011;73087;49.924;22.080;2023-10-13T04:28:20;14.00;;;8.02;;
83190;SDS011;73087;49.924;22.080;2023-10-13T04:29:21;13.75;;;7.28;;
83190;SDS011;73087;49.924;22.080;2023-10-13T04:30:21;13.68;;;7.40;;
83190;SDS011;73087;49.924;22.080;2023-10-13T04:31:22;14.25;;;7.75;;
83190;SDS011;73087;49.924;22.080;2023-10-13T04:32:22;14.45;;;7.82;;
83190;SDS011;73087;49.924;22.080;2023-10-13T04:33:23;13.40;;;7.82;;
83190;SDS011;73087;49.924;22.080;2023-10-13T04:34:24;14.77;;;7.80;;
83190;SDS011;73087;49.924;22.080;2023-10-13T04:35:25;16.13;;;8.77;;
83190;SDS011;73087;49.924;22.080;2023-10-13T04:36:25;13.15;;;8.50;;
83190;SDS011;73087;49.924;22.080;2023-10-13T04:37:26;15.98;;;8.52;;
83190;SDS011;73087;49.924;22.080;2023-10-13T04:38:26;15.80;;;8.48;;
83190;SDS011;73087;49.924;22.080;2023-10-13T04:39:27;16.45;;;8.52;;
83190;SDS011;73087;49.924;22.080;2023-10-13T04:40:27;15.73;;;9.95;;
83190;SDS011;73087;49.924;22.080;2023-10-13T04:41:30;20.13;;;10.52;;
83190;SDS011;73087;49.924;22.080;2023-10-13T04:42:32;18.73;;;9.95;;
83190;SDS011;73087;49.924;22.080;2023-10-13T04:43:33;17.90;;;9.60;;
83190;SDS011;73087;49.924;22.080;2023-10-13T04:44:33;17.50;;;9.80;;
83190;SDS011;73087;49.924;22.080;2023-10-13T04:45:34;19.75;;;9.73;;
83190;SDS011;73087;49.924;22.080;2023-10-13T04:46:34;20.80;;;10.90;;
83190;SDS011;73087;49.924;22.080;2023-10-13T04:47:35;17.95;;;10.05;;
83190;SDS011;73087;49.924;22.080;2023-10-13T04:48:35;22.15;;;12.00;;
83190;SDS011;73087;49.924;22.080;2023-10-13T04:49:38;23.88;;;12.57;;
83190;SDS011;73087;49.924;22.080;2023-10-13T04:50:40;26.92;;;12.65;;
83190;SDS011;73087;49.924;22.080;2023-10-13T04:51:40;22.02;;;11.00;;
83190;SDS011;73087;49.924;22.080;2023-10-13T04:52:41;26.25;;;14.05;;
83190;SDS011;73087;49.924;22.080;2023-10-13T04:53:41;22.60;;;12.05;;
83190;SDS011;73087;49.924;22.080;2023-10-13T04:54:42;15.45;;;9.00;;
83190;SDS011;73087;49.924;22.080;2023-10-13T04:55:43;16.45;;;9.38;;
83190;SDS011;73087;49.924;22.080;2023-10-13T04:56:45;17.65;;;10.05;;
83190;SDS011;73087;49.924;22.080;2023-10-13T04:57:46;12.52;;;8.50;;
83190;SDS011;73087;49.924;22.080;2023-10-13T04:58:46;15.90;;;8.75;;
83190;SDS011;73087;49.924;22.080;2023-10-13T04:59:47;15.45;;;8.38;;
83190;SDS011;73087;49.924;22.080;2023-10-13T05:00:48;15.13;;;8.32;;
83190;SDS011;73087;49.924;22.080;2023-10-13T05:01:48;13.13;;;7.53;;
83190;SDS011;73087;49.924;22.080;2023-10-13T05:02:49;14.15;;;7.60;;
83190;SDS011;73087;49.924;22.080;2023-10-13T05:03:49;13.15;;;8.77;;
83190;SDS011;73087;49.924;22.080;2023-10-13T05:04:50;13.10;;;8.02;;
83190;SDS011;73087;49.924;22.080;2023-10-13T05:05:51;15.23;;;8.18;;
83190;SDS011;73087;49.924;22.080;2023-10-13T05:06:51;14.80;;;7.90;;
83190;SDS011;73087;49.924;22.080;2023-10-13T05:07:52;13.50;;;7.43;;
83190;SDS011;73087;49.924;22.080;2023-10-13T05:08:52;17.08;;;9.50;;
83190;SDS011;73087;49.924;22.080;2023-10-13T05:09:53;13.20;;;7.93;;
83190;SDS011;73087;49.924;22.080;2023-10-13T05:10:54;13.45;;;7.90;;
83190;SDS011;73087;49.924;22.080;2023-10-13T05:11:55;14.95;;;8.20;;
83190;SDS011;73087;49.924;22.080;2023-10-13T05:12:56;16.30;;;8.60;;
83190;SDS011;73087;49.924;22.080;2023-10-13T05:13:57;17.20;;;9.65;;
83190;SDS011;73087;49.924;22.080;2023-10-13T05:14:57;16.73;;;9.38;;
83190;SDS011;73087;49.924;22.080;2023-10-13T05:15:58;21.38;;;10.13;;
83190;SDS011;73087;49.924;22.080;2023-10-13T05:16:58;14.85;;;9.18;;
83190;SDS011;73087;49.924;22.080;2023-10-13T05:17:59;21.40;;;11.02;;
83190;SDS011;73087;49.924;22.080;2023-10-13T05:18:59;15.73;;;9.75;;
83190;SDS011;73087;49.924;22.080;2023-10-13T05:20:00;18.27;;;9.95;;
83190;SDS011;73087;49.924;22.080;2023-10-13T05:21:00;15.35;;;8.73;;
83190;SDS011;73087;49.924;22.080;2023-10-13T05:22:01;15.82;;;8.70;;
83190;SDS011;73087;49.924;22.080;2023-10-13T05:23:01;15.65;;;9.18;;
83190;SDS011;73087;49.924;22.080;2023-10-13T05:24:02;17.13;;;10.18;;
83190;SDS011;73087;49.924;22.080;2023-10-13T05:25:03;14.77;;;9.48;;
83190;SDS011;73087;49.924;22.080;2023-10-13T05:26:04;18.45;;;9.63;;
83190;SDS011;73087;49.924;22.080;2023-10-13T05:27:06;16.40;;;8.50;;
83190;SDS011;73087;49.924;22.080;2023-10-13T05:28:07;17.13;;;8.35;;
83190;SDS011;73087;49.924;22.080;2023-10-13T05:29:07;15.63;;;8.88;;
83190;SDS011;73087;49.924;22.080;2023-10-13T05:30:08;16.67;;;9.80;;
83190;SDS011;73087;49.924;22.080;2023-10-13T05:31:09;14.30;;;7.82;;
83190;SDS011;73087;49.924;22.080;2023-10-13T05:32:10;15.20;;;8.05;;
83190;SDS011;73087;49.924;22.080;2023-10-13T05:33:10;16.83;;;9.30;;
83190;SDS011;73087;49.924;22.080;2023-10-13T05:34:11;18.70;;;7.85;;
83190;SDS011;73087;49.924;22.080;2023-10-13T05:35:11;17.50;;;7.35;;
83190;SDS011;73087;49.924;22.080;2023-10-13T05:36:12;14.05;;;7.43;;
83190;SDS011;73087;49.924;22.080;2023-10-13T05:37:13;15.18;;;8.02;;
83190;SDS011;73087;49.924;22.080;2023-10-13T05:38:13;14.10;;;8.30;;
83190;SDS011;73087;49.924;22.080;2023-10-13T05:39:14;17.15;;;9.07;;
83190;SDS011;73087;49.924;22.080;2023-10-13T05:40:14;12.30;;;7.75;;
83190;SDS011;73087;49.924;22.080;2023-10-13T05:41:15;15.07;;;8.90;;
83190;SDS011;73087;49.924;22.080;2023-10-13T05:42:17;22.92;;;9.98;;
83190;SDS011;73087;49.924;22.080;2023-10-13T05:43:17;20.10;;;10.02;;
83190;SDS011;73087;49.924;22.080;2023-10-13T05:44:18;18.52;;;9.70;;
83190;SDS011;73087;49.924;22.080;2023-10-13T05:45:18;16.20;;;9.20;;
83190;SDS011;73087;49.924;22.080;2023-10-13T05:46:19;19.00;;;9.38;;
83190;SDS011;73087;49.924;22.080;2023-10-13T05:47:19;15.90;;;9.43;;
83190;SDS011;73087;49.924;22.080;2023-10-13T05:48:20;17.95;;;9.48;;
83190;SDS011;73087;49.924;22.080;2023-10-13T05:49:21;17.88;;;9.55;;
83190;SDS011;73087;49.924;22.080;2023-10-13T05:50:21;18.30;;;9.23;;
83190;SDS011;73087;49.924;22.080;2023-10-13T05:51:22;19.13;;;10.20;;
83190;SDS011;73087;49.924;22.080;2023-10-13T05:52:22;15.90;;;9.10;;
83190;SDS011;73087;49.924;22.080;2023-10-13T05:53:23;22.10;;;9.52;;
83190;SDS011;73087;49.924;22.080;2023-10-13T05:54:23;14.90;;;8.32;;
83190;SDS011;73087;49.924;22.080;2023-10-13T05:55:24;18.08;;;9.57;;